sensor_id;sensor_type;location;lat;lon;timestamp;P1;durP1;ratioP1;P2;durP2;ratioP2
74269;SDS011;62754;48.252;11.654;2023-05-08T00:01:28;10.88;;;6.53;;
74269;SDS011;62754;48.252;11.654;2023-05-08T00:03:56;10.68;;;7.00;;
74269;SDS011;62754;48.252;11.654;2023-05-08T00:06:24;13.15;;;6.75;;
74269;SDS011;62754;48.252;11.654;2023-05-08T00:08:52;12.77;;;6.70;;
74269;SDS011;62754;48.252;11.654;2023-05-08T00:11:19;10.80;;;6.22;;
74269;SDS011;62754;48.252;11.654;2023-05-08T00:13:44;9.90;;;6.43;;
74269;SDS011;62754;48.252;11.654;2023-05-08T00:16:13;10.15;;;6.40;;
74269;SDS011;62754;48.252;11.654;2023-05-08T00:18:42;11.20;;;7.10;;
74269;SDS011;62754;48.252;11.654;2023-05-08T00:21:10;10.00;;;6.78;;
74269;SDS011;62754;48.252;11.654;2023-05-08T00:23:36;10.63;;;7.30;;
74269;SDS011;62754;48.252;11.654;2023-05-08T00:26:02;10.48;;;6.85;;
74269;SDS011;62754;48.252;11.654;2023-05-08T00:28:28;11.63;;;6.78;;
74269;SDS011;62754;48.252;11.654;2023-05-08T00:30:53;10.60;;;7.32;;
74269;SDS011;62754;48.252;11.654;2023-05-08T00:33:23;9.73;;;6.82;;
74269;SDS011;62754;48.252;11.654;2023-05-08T00:35:49;10.85;;;6.70;;
74269;SDS011;62754;48.252;11.654;2023-05-08T00:38:25;10.88;;;7.10;;
74269;SDS011;62754;48.252;11.654;2023-05-08T00:40:56;10.10;;;6.70;;
74269;SDS011;62754;48.252;11.654;2023-05-08T00:43:24;11.80;;;6.40;;
74269;SDS011;62754;48.252;11.654;2023-05-08T00:45:55;10.40;;;6.70;;
74269;SDS011;62754;48.252;11.654;2023-05-08T00:48:27;11.32;;;6.72;;
74269;SDS011;62754;48.252;11.654;2023-05-08T00:50:54;10.15;;;6.88;;
74269;SDS011;62754;48.252;11.654;2023-05-08T00:53:23;11.00;;;6.75;;
74269;SDS011;62754;48.252;11.654;2023-05-08T00:55:50;11.10;;;7.18;;
74269;SDS011;62754;48.252;11.654;2023-05-08T00:58:19;10.27;;;6.82;;
74269;SDS011;62754;48.252;11.654;2023-05-08T01:00:45;9.52;;;7.03;;
74269;SDS011;62754;48.252;11.654;2023-05-08T01:03:15;13.02;;;7.05;;
74269;SDS011;62754;48.252;11.654;2023-05-08T01:05:43;10.32;;;6.57;;
74269;SDS011;62754;48.252;11.654;2023-05-08T01:08:13;10.00;;;6.47;;
74269;SDS011;62754;48.252;11.654;2023-05-08T01:10:43;13.20;;;7.43;;
74269;SDS011;62754;48.252;11.654;2023-05-08T01:13:13;12.07;;;7.43;;
74269;SDS011;62754;48.252;11.654;2023-05-08T01:16:11;10.05;;;6.72;;
74269;SDS011;62754;48.252;11.654;2023-05-08T01:30:11;12.82;;;7.07;;
74269;SDS011;62754;48.252;11.654;2023-05-08T01:35:58;9.25;;;6.25;;
74269;SDS011;62754;48.252;11.654;2023-05-08T01:41:32;11.70;;;6.85;;
74269;SDS011;62754;48.252;11.654;2023-05-08T01:46:46;10.35;;;7.03;;
74269;SDS011;62754;48.252;11.654;2023-05-08T01:49:16;11.70;;;7.57;;
74269;SDS011;62754;48.252;11.654;2023-05-08T01:51:52;11.15;;;6.82;;
74269;SDS011;62754;48.252;11.654;2023-05-08T01:54:27;11.13;;;6.90;;
74269;SDS011;62754;48.252;11.654;2023-05-08T01:56:58;10.82;;;6.93;;
74269;SDS011;62754;48.252;11.654;2023-05-08T01:59:26;10.27;;;6.40;;
74269;SDS011;62754;48.252;11.654;2023-05-08T02:01:57;11.00;;;6.70;;
74269;SDS011;62754;48.252;11.654;2023-05-08T02:04:28;10.00;;;7.05;;
74269;SDS011;62754;48.252;11.654;2023-05-08T02:06:55;13.15;;;7.00;;
74269;SDS011;62754;48.252;11.654;2023-05-08T02:09:23;10.10;;;6.40;;
74269;SDS011;62754;48.252;11.654;2023-05-08T02:11:50;9.57;;;6.20;;
74269;SDS011;62754;48.252;11.654;2023-05-08T02:14:20;12.27;;;6.45;;
74269;SDS011;62754;48.252;11.654;2023-05-08T02:16:52;10.00;;;6.70;;
74269;SDS011;62754;48.252;11.654;2023-05-08T02:19:21;9.18;;;6.50;;
74269;SDS011;62754;48.252;11.654;2023-05-08T02:21:52;7.95;;;5.60;;
74269;SDS011;62754;48.252;11.654;2023-05-08T02:24:21;9.45;;;6.15;;
74269;SDS011;62754;48.252;11.654;2023-05-08T02:26:51;10.82;;;6.30;;
74269;SDS011;62754;48.252;11.654;2023-05-08T02:29:24;8.63;;;5.95;;
74269;SDS011;62754;48.252;11.654;2023-05-08T02:31:53;13.77;;;6.43;;
74269;SDS011;62754;48.252;11.654;2023-05-08T02:34:23;8.75;;;5.97;;
74269;SDS011;62754;48.252;11.654;2023-05-08T02:36:50;8.55;;;5.60;;
74269;SDS011;62754;48.252;11.654;2023-05-08T02:39:18;8.98;;;6.35;;
74269;SDS011;62754;48.252;11.654;2023-05-08T02:41:52;8.68;;;6.05;;
74269;SDS011;62754;48.252;11.654;2023-05-08T02:44:20;9.30;;;5.75;;
74269;SDS011;62754;48.252;11.654;2023-05-08T02:46:54;11.90;;;6.75;;
74269;SDS011;62754;48.252;11.654;2023-05-08T02:54:47;10.18;;;5.80;;
74269;SDS011;62754;48.252;11.654;2023-05-08T03:02:37;10.40;;;6.32;;
74269;SDS011;62754;48.252;11.654;2023-05-08T03:05:07;9.55;;;5.95;;
74269;SDS011;62754;48.252;11.654;2023-05-08T03:07:42;9.57;;;6.80;;
74269;SDS011;62754;48.252;11.654;2023-05-08T03:10:14;10.38;;;6.38;;
74269;SDS011;62754;48.252;11.654;2023-05-08T03:12:47;8.85;;;6.00;;
74269;SDS011;62754;48.252;11.654;2023-05-08T03:17:53;8.70;;;6.13;;
74269;SDS011;62754;48.252;11.654;2023-05-08T03:20:24;10.05;;;6.20;;
74269;SDS011;62754;48.252;11.654;2023-05-08T03:22:52;10.35;;;6.97;;
74269;SDS011;62754;48.252;11.654;2023-05-08T03:25:22;10.00;;;6.28;;
74269;SDS011;62754;48.252;11.654;2023-05-08T03:27:51;9.55;;;6.18;;
74269;SDS011;62754;48.252;11.654;2023-05-08T03:30:20;9.35;;;6.47;;
74269;SDS011;62754;48.252;11.654;2023-05-08T03:32:49;9.20;;;6.18;;
74269;SDS011;62754;48.252;11.654;2023-05-08T03:35:19;10.43;;;6.80;;
74269;SDS011;62754;48.252;11.654;2023-05-08T03:37:48;10.55;;;6.45;;
74269;SDS011;62754;48.252;11.654;2023-05-08T03:40:16;9.70;;;6.57;;
74269;SDS011;62754;48.252;11.654;2023-05-08T03:42:42;9.73;;;6.68;;
74269;SDS011;62754;48.252;11.654;2023-05-08T03:45:08;9.57;;;6.05;;
74269;SDS011;62754;48.252;11.654;2023-05-08T03:47:44;9.18;;;6.25;;
74269;SDS011;62754;48.252;11.654;2023-05-08T03:50:15;8.25;;;5.88;;
74269;SDS011;62754;48.252;11.654;2023-05-08T03:52:44;10.95;;;5.88;;
74269;SDS011;62754;48.252;11.654;2023-05-08T03:55:12;9.82;;;6.22;;
74269;SDS011;62754;48.252;11.654;2023-05-08T04:00:31;9.50;;;5.88;;
74269;SDS011;62754;48.252;11.654;2023-05-08T04:09:10;9.57;;;6.25;;
74269;SDS011;62754;48.252;11.654;2023-05-08T04:11:43;8.10;;;5.75;;
74269;SDS011;62754;48.252;11.654;2023-05-08T04:14:18;8.13;;;5.38;;
74269;SDS011;62754;48.252;11.654;2023-05-08T04:16:50;8.50;;;5.63;;
74269;SDS011;62754;48.252;11.654;2023-05-08T04:19:19;9.38;;;6.25;;
74269;SDS011;62754;48.252;11.654;2023-05-08T04:21:51;9.60;;;5.80;;
74269;SDS011;62754;48.252;11.654;2023-05-08T04:24:18;9.48;;;6.18;;
74269;SDS011;62754;48.252;11.654;2023-05-08T04:26:46;9.00;;;6.43;;
74269;SDS011;62754;48.252;11.654;2023-05-08T04:29:13;8.60;;;6.18;;
74269;SDS011;62754;48.252;11.654;2023-05-08T04:31:39;9.18;;;6.38;;
74269;SDS011;62754;48.252;11.654;2023-05-08T04:34:08;8.85;;;6.00;;
74269;SDS011;62754;48.252;11.654;2023-05-08T04:36:37;8.40;;;5.65;;
74269;SDS011;62754;48.252;11.654;2023-05-08T04:39:02;8.65;;;5.63;;
74269;SDS011;62754;48.252;11.654;2023-05-08T04:41:31;10.25;;;6.45;;
74269;SDS011;62754;48.252;11.654;2023-05-08T04:44:01;8.77;;;5.78;;
74269;SDS011;62754;48.252;11.654;2023-05-08T04:46:28;9.32;;;5.95;;
74269;SDS011;62754;48.252;11.654;2023-05-08T04:48:53;10.38;;;6.15;;
74269;SDS011;62754;48.252;11.654;2023-05-08T04:51:19;8.52;;;5.82;;
74269;SDS011;62754;48.252;11.654;2023-05-08T04:53:45;10.75;;;6.47;;
74269;SDS011;62754;48.252;11.654;2023-05-08T04:56:11;7.60;;;5.60;;
74269;SDS011;62754;48.252;11.654;2023-05-08T04:58:40;9.32;;;6.18;;
74269;SDS011;62754;48.252;11.654;2023-05-08T05:01:08;10.30;;;6.10;;
74269;SDS011;62754;48.252;11.654;2023-05-08T05:03:33;9.40;;;6.43;;
74269;SDS011;62754;48.252;11.654;2023-05-08T05:05:59;8.75;;;5.97;;
74269;SDS011;62754;48.252;11.654;2023-05-08T05:08:26;8.00;;;5.90;;
74269;SDS011;62754;48.252;11.654;2023-05-08T05:10:54;9.52;;;5.90;;
74269;SDS011;62754;48.252;11.654;2023-05-08T05:13:20;9.43;;;5.93;;
74269;SDS011;62754;48.252;11.654;2023-05-08T05:15:46;9.73;;;6.32;;
74269;SDS011;62754;48.252;11.654;2023-05-08T05:18:11;9.02;;;6.07;;
74269;SDS011;62754;48.252;11.654;2023-05-08T05:20:37;8.48;;;5.80;;
74269;SDS011;62754;48.252;11.654;2023-05-08T05:23:03;8.93;;;5.88;;
74269;SDS011;62754;48.252;11.654;2023-05-08T05:25:29;8.98;;;5.72;;
74269;SDS011;62754;48.252;11.654;2023-05-08T05:27:57;8.35;;;5.72;;
74269;SDS011;62754;48.252;11.654;2023-05-08T05:30:27;10.57;;;6.53;;
74269;SDS011;62754;48.252;11.654;2023-05-08T05:32:53;10.18;;;6.10;;
74269;SDS011;62754;48.252;11.654;2023-05-08T05:35:21;10.18;;;6.13;;
74269;SDS011;62754;48.252;11.654;2023-05-08T05:37:49;8.88;;;5.68;;
74269;SDS011;62754;48.252;11.654;2023-05-08T05:40:17;9.32;;;6.22;;
74269;SDS011;62754;48.252;11.654;2023-05-08T05:42:47;9.52;;;6.35;;
74269;SDS011;62754;48.252;11.654;2023-05-08T05:45:13;10.10;;;6.07;;
74269;SDS011;62754;48.252;11.654;2023-05-08T05:47:44;9.80;;;6.70;;
74269;SDS011;62754;48.252;11.654;2023-05-08T05:50:14;8.57;;;6.32;;
74269;SDS011;62754;48.252;11.654;2023-05-08T05:52:41;9.65;;;6.13;;
74269;SDS011;62754;48.252;11.654;2023-05-08T05:55:07;10.43;;;6.40;;
74269;SDS011;62754;48.252;11.654;2023-05-08T05:57:37;11.00;;;6.15;;
74269;SDS011;62754;48.252;11.654;2023-05-08T06:00:05;10.25;;;6.75;;
74269;SDS011;62754;48.252;11.654;2023-05-08T06:02:34;11.90;;;7.00;;
74269;SDS011;62754;48.252;11.654;2023-05-08T06:05:00;8.70;;;5.63;;
74269;SDS011;62754;48.252;11.654;2023-05-08T06:07:26;8.27;;;6.57;;
74269;SDS011;62754;48.252;11.654;2023-05-08T06:09:57;9.70;;;6.28;;
74269;SDS011;62754;48.252;11.654;2023-05-08T06:12:23;10.77;;;6.32;;
74269;SDS011;62754;48.252;11.654;2023-05-08T06:14:52;8.05;;;5.78;;
74269;SDS011;62754;48.252;11.654;2023-05-08T06:17:20;9.43;;;6.30;;
74269;SDS011;62754;48.252;11.654;2023-05-08T06:19:48;9.55;;;6.50;;
74269;SDS011;62754;48.252;11.654;2023-05-08T06:22:17;9.73;;;6.68;;
74269;SDS011;62754;48.252;11.654;2023-05-08T06:24:46;8.98;;;6.40;;
74269;SDS011;62754;48.252;11.654;2023-05-08T06:27:14;9.23;;;6.57;;
74269;SDS011;62754;48.252;11.654;2023-05-08T06:29:39;9.75;;;6.40;;
74269;SDS011;62754;48.252;11.654;2023-05-08T06:32:07;10.35;;;6.63;;
74269;SDS011;62754;48.252;11.654;2023-05-08T06:34:33;11.50;;;6.70;;
74269;SDS011;62754;48.252;11.654;2023-05-08T06:36:59;9.75;;;6.30;;
74269;SDS011;62754;48.252;11.654;2023-05-08T06:39:25;9.40;;;5.90;;
74269;SDS011;62754;48.252;11.654;2023-05-08T06:41:52;10.07;;;7.00;;
74269;SDS011;62754;48.252;11.654;2023-05-08T06:44:20;8.88;;;6.47;;
74269;SDS011;62754;48.252;11.654;2023-05-08T06:46:51;9.43;;;6.47;;
74269;SDS011;62754;48.252;11.654;2023-05-08T06:49:19;9.60;;;6.07;;
74269;SDS011;62754;48.252;11.654;2023-05-08T06:51:47;10.75;;;6.75;;
74269;SDS011;62754;48.252;11.654;2023-05-08T06:54:15;9.20;;;6.40;;
74269;SDS011;62754;48.252;11.654;2023-05-08T06:56:43;10.98;;;6.82;;
74269;SDS011;62754;48.252;11.654;2023-05-08T06:59:12;9.10;;;6.53;;
74269;SDS011;62754;48.252;11.654;2023-05-08T07:01:40;9.50;;;6.25;;
74269;SDS011;62754;48.252;11.654;2023-05-08T07:04:06;9.90;;;6.82;;
74269;SDS011;62754;48.252;11.654;2023-05-08T07:06:34;10.52;;;6.70;;
74269;SDS011;62754;48.252;11.654;2023-05-08T07:08:59;9.32;;;6.45;;
74269;SDS011;62754;48.252;11.654;2023-05-08T07:11:25;9.68;;;6.80;;
74269;SDS011;62754;48.252;11.654;2023-05-08T07:13:51;10.90;;;6.95;;
74269;SDS011;62754;48.252;11.654;2023-05-08T07:16:22;9.60;;;7.13;;
74269;SDS011;62754;48.252;11.654;2023-05-08T07:18:50;9.32;;;6.53;;
74269;SDS011;62754;48.252;11.654;2023-05-08T07:21:17;11.75;;;7.47;;
74269;SDS011;62754;48.252;11.654;2023-05-08T07:23:43;9.60;;;6.70;;
74269;SDS011;62754;48.252;11.654;2023-05-08T07:26:09;15.52;;;7.85;;
74269;SDS011;62754;48.252;11.654;2023-05-08T07:28:35;9.90;;;7.10;;
74269;SDS011;62754;48.252;11.654;2023-05-08T07:31:05;11.32;;;7.32;;
74269;SDS011;62754;48.252;11.654;2023-05-08T07:33:33;11.13;;;7.18;;
74269;SDS011;62754;48.252;11.654;2023-05-08T07:35:59;11.90;;;7.78;;
74269;SDS011;62754;48.252;11.654;2023-05-08T07:38:25;10.43;;;7.45;;
74269;SDS011;62754;48.252;11.654;2023-05-08T07:40:51;9.98;;;7.32;;
74269;SDS011;62754;48.252;11.654;2023-05-08T07:43:21;10.82;;;7.63;;
74269;SDS011;62754;48.252;11.654;2023-05-08T07:45:53;10.60;;;7.70;;
74269;SDS011;62754;48.252;11.654;2023-05-08T07:48:23;10.07;;;6.93;;
74269;SDS011;62754;48.252;11.654;2023-05-08T07:50:51;10.65;;;7.35;;
74269;SDS011;62754;48.252;11.654;2023-05-08T07:53:17;11.73;;;7.85;;
74269;SDS011;62754;48.252;11.654;2023-05-08T07:55:45;11.63;;;7.85;;
74269;SDS011;62754;48.252;11.654;2023-05-08T07:58:10;10.70;;;7.97;;
74269;SDS011;62754;48.252;11.654;2023-05-08T08:00:36;10.50;;;7.50;;
74269;SDS011;62754;48.252;11.654;2023-05-08T08:03:04;10.23;;;7.18;;
74269;SDS011;62754;48.252;11.654;2023-05-08T08:05:32;13.00;;;8.65;;
74269;SDS011;62754;48.252;11.654;2023-05-08T08:07:58;10.18;;;7.72;;
74269;SDS011;62754;48.252;11.654;2023-05-08T08:10:24;10.80;;;7.40;;
74269;SDS011;62754;48.252;11.654;2023-05-08T08:12:52;11.50;;;8.15;;
74269;SDS011;62754;48.252;11.654;2023-05-08T08:15:20;12.15;;;8.68;;
74269;SDS011;62754;48.252;11.654;2023-05-08T08:17:48;11.48;;;7.93;;
74269;SDS011;62754;48.252;11.654;2023-05-08T08:20:14;11.38;;;8.50;;
74269;SDS011;62754;48.252;11.654;2023-05-08T08:22:42;10.88;;;7.97;;
74269;SDS011;62754;48.252;11.654;2023-05-08T08:25:10;12.10;;;7.70;;
74269;SDS011;62754;48.252;11.654;2023-05-08T08:27:38;13.70;;;7.85;;
74269;SDS011;62754;48.252;11.654;2023-05-08T08:30:04;12.18;;;8.25;;
74269;SDS011;62754;48.252;11.654;2023-05-08T08:32:30;10.95;;;7.72;;
74269;SDS011;62754;48.252;11.654;2023-05-08T08:34:56;12.65;;;8.82;;
74269;SDS011;62754;48.252;11.654;2023-05-08T08:37:22;12.38;;;8.30;;
74269;SDS011;62754;48.252;11.654;2023-05-08T08:39:52;12.35;;;9.02;;
74269;SDS011;62754;48.252;11.654;2023-05-08T08:42:18;10.60;;;7.78;;
74269;SDS011;62754;48.252;11.654;2023-05-08T08:44:48;12.32;;;8.25;;
74269;SDS011;62754;48.252;11.654;2023-05-08T08:47:15;12.27;;;8.68;;
74269;SDS011;62754;48.252;11.654;2023-05-08T08:49:47;12.15;;;8.32;;
74269;SDS011;62754;48.252;11.654;2023-05-08T08:54:57;11.90;;;8.80;;
74269;SDS011;62754;48.252;11.654;2023-05-08T08:59:58;11.80;;;7.78;;
74269;SDS011;62754;48.252;11.654;2023-05-08T09:02:30;14.82;;;9.07;;
74269;SDS011;62754;48.252;11.654;2023-05-08T09:04:58;15.70;;;8.70;;
74269;SDS011;62754;48.252;11.654;2023-05-08T09:07:25;12.65;;;8.43;;
74269;SDS011;62754;48.252;11.654;2023-05-08T09:09:55;12.93;;;9.05;;
74269;SDS011;62754;48.252;11.654;2023-05-08T09:12:21;14.30;;;9.43;;
74269;SDS011;62754;48.252;11.654;2023-05-08T09:14:50;14.48;;;9.30;;
74269;SDS011;62754;48.252;11.654;2023-05-08T09:17:17;12.50;;;9.20;;
74269;SDS011;62754;48.252;11.654;2023-05-08T09:19:47;12.82;;;8.90;;
74269;SDS011;62754;48.252;11.654;2023-05-08T09:22:14;12.20;;;9.15;;
74269;SDS011;62754;48.252;11.654;2023-05-08T09:24:58;15.80;;;9.73;;
74269;SDS011;62754;48.252;11.654;2023-05-08T09:27:27;13.27;;;9.88;;
74269;SDS011;62754;48.252;11.654;2023-05-08T09:32:25;15.55;;;9.63;;
74269;SDS011;62754;48.252;11.654;2023-05-08T09:34:51;15.88;;;9.63;;
74269;SDS011;62754;48.252;11.654;2023-05-08T09:37:17;17.10;;;9.88;;
74269;SDS011;62754;48.252;11.654;2023-05-08T09:39:43;15.43;;;9.98;;
74269;SDS011;62754;48.252;11.654;2023-05-08T09:42:10;14.85;;;10.55;;
74269;SDS011;62754;48.252;11.654;2023-05-08T09:44:52;13.82;;;10.07;;
74269;SDS011;62754;48.252;11.654;2023-05-08T09:47:21;15.07;;;10.65;;
74269;SDS011;62754;48.252;11.654;2023-05-08T09:52:29;16.05;;;10.27;;
74269;SDS011;62754;48.252;11.654;2023-05-08T09:54:58;12.90;;;9.48;;
74269;SDS011;62754;48.252;11.654;2023-05-08T09:57:25;13.35;;;10.38;;
74269;SDS011;62754;48.252;11.654;2023-05-08T10:00:02;13.85;;;10.10;;
74269;SDS011;62754;48.252;11.654;2023-05-08T10:02:31;13.77;;;9.98;;
74269;SDS011;62754;48.252;11.654;2023-05-08T10:04:57;17.10;;;12.68;;
74269;SDS011;62754;48.252;11.654;2023-05-08T10:07:35;13.48;;;10.35;;
74269;SDS011;62754;48.252;11.654;2023-05-08T10:10:03;13.10;;;9.82;;
74269;SDS011;62754;48.252;11.654;2023-05-08T10:12:30;15.45;;;10.80;;
74269;SDS011;62754;48.252;11.654;2023-05-08T10:14:58;14.80;;;10.88;;
74269;SDS011;62754;48.252;11.654;2023-05-08T10:17:36;13.90;;;10.57;;
74269;SDS011;62754;48.252;11.654;2023-05-08T10:20:08;13.63;;;10.93;;
74269;SDS011;62754;48.252;11.654;2023-05-08T10:25:09;14.25;;;10.32;;
74269;SDS011;62754;48.252;11.654;2023-05-08T10:27:46;15.80;;;9.93;;
74269;SDS011;62754;48.252;11.654;2023-05-08T10:30:22;14.45;;;11.02;;
74269;SDS011;62754;48.252;11.654;2023-05-08T10:32:50;13.63;;;10.00;;
74269;SDS011;62754;48.252;11.654;2023-05-08T10:35:16;13.07;;;10.40;;
74269;SDS011;62754;48.252;11.654;2023-05-08T10:37:46;14.00;;;10.68;;
74269;SDS011;62754;48.252;11.654;2023-05-08T10:40:14;13.00;;;10.50;;
74269;SDS011;62754;48.252;11.654;2023-05-08T10:42:41;13.77;;;10.32;;
74269;SDS011;62754;48.252;11.654;2023-05-08T10:45:07;15.38;;;10.68;;
74269;SDS011;62754;48.252;11.654;2023-05-08T10:53:01;13.32;;;10.10;;
74269;SDS011;62754;48.252;11.654;2023-05-08T10:55:45;12.70;;;9.93;;
74269;SDS011;62754;48.252;11.654;2023-05-08T10:58:15;11.38;;;9.05;;
74269;SDS011;62754;48.252;11.654;2023-05-08T11:03:28;12.43;;;9.25;;
74269;SDS011;62754;48.252;11.654;2023-05-08T11:05:55;12.65;;;9.75;;
74269;SDS011;62754;48.252;11.654;2023-05-08T11:08:25;10.90;;;9.20;;
74269;SDS011;62754;48.252;11.654;2023-05-08T11:13:58;11.73;;;10.20;;
74269;SDS011;62754;48.252;11.654;2023-05-08T11:16:29;12.27;;;10.20;;
74269;SDS011;62754;48.252;11.654;2023-05-08T11:19:19;11.43;;;9.45;;
74269;SDS011;62754;48.252;11.654;2023-05-08T11:45:59;13.23;;;10.52;;
74269;SDS011;62754;48.252;11.654;2023-05-08T11:48:30;13.63;;;10.15;;
74269;SDS011;62754;48.252;11.654;2023-05-08T11:50:59;12.25;;;9.82;;
74269;SDS011;62754;48.252;11.654;2023-05-08T11:53:28;11.30;;;8.80;;
74269;SDS011;62754;48.252;11.654;2023-05-08T11:55:57;11.82;;;9.73;;
74269;SDS011;62754;48.252;11.654;2023-05-08T11:58:24;12.80;;;10.10;;
74269;SDS011;62754;48.252;11.654;2023-05-08T12:00:52;11.82;;;9.98;;
74269;SDS011;62754;48.252;11.654;2023-05-08T12:03:18;12.88;;;9.90;;
74269;SDS011;62754;48.252;11.654;2023-05-08T12:05:46;12.15;;;9.23;;
74269;SDS011;62754;48.252;11.654;2023-05-08T12:08:13;11.18;;;9.38;;
74269;SDS011;62754;48.252;11.654;2023-05-08T12:10:55;11.57;;;9.40;;
74269;SDS011;62754;48.252;11.654;2023-05-08T12:13:25;12.40;;;9.38;;
74269;SDS011;62754;48.252;11.654;2023-05-08T12:15:56;12.05;;;10.10;;
74269;SDS011;62754;48.252;11.654;2023-05-08T12:18:25;10.98;;;9.27;;
74269;SDS011;62754;48.252;11.654;2023-05-08T12:20:59;11.43;;;8.85;;
74269;SDS011;62754;48.252;11.654;2023-05-08T12:23:27;11.50;;;9.70;;
74269;SDS011;62754;48.252;11.654;2023-05-08T12:26:01;10.75;;;8.90;;
74269;SDS011;62754;48.252;11.654;2023-05-08T12:28:27;10.75;;;8.65;;
74269;SDS011;62754;48.252;11.654;2023-05-08T12:30:55;11.52;;;8.80;;
74269;SDS011;62754;48.252;11.654;2023-05-08T12:33:21;10.32;;;9.10;;
74269;SDS011;62754;48.252;11.654;2023-05-08T12:35:50;11.52;;;8.95;;
74269;SDS011;62754;48.252;11.654;2023-05-08T12:38:18;12.80;;;9.10;;
74269;SDS011;62754;48.252;11.654;2023-05-08T12:40:52;10.35;;;8.50;;
74269;SDS011;62754;48.252;11.654;2023-05-08T12:43:23;11.20;;;8.40;;
74269;SDS011;62754;48.252;11.654;2023-05-08T12:45:55;10.55;;;8.98;;
74269;SDS011;62754;48.252;11.654;2023-05-08T12:48:23;12.32;;;10.02;;
74269;SDS011;62754;48.252;11.654;2023-05-08T12:50:49;11.15;;;9.52;;
74269;SDS011;62754;48.252;11.654;2023-05-08T12:53:16;10.00;;;8.98;;
74269;SDS011;62754;48.252;11.654;2023-05-08T12:55:50;12.85;;;9.80;;
74269;SDS011;62754;48.252;11.654;2023-05-08T12:58:15;12.30;;;8.77;;
74269;SDS011;62754;48.252;11.654;2023-05-08T13:00:48;12.98;;;10.18;;
74269;SDS011;62754;48.252;11.654;2023-05-08T13:03:22;12.10;;;10.00;;
74269;SDS011;62754;48.252;11.654;2023-05-08T13:08:14;11.75;;;9.88;;
74269;SDS011;62754;48.252;11.654;2023-05-08T13:13:22;11.18;;;8.45;;
74269;SDS011;62754;48.252;11.654;2023-05-08T13:16:01;10.02;;;8.68;;
74269;SDS011;62754;48.252;11.654;2023-05-08T13:18:28;13.10;;;10.77;;
74269;SDS011;62754;48.252;11.654;2023-05-08T13:20:54;13.73;;;10.85;;
74269;SDS011;62754;48.252;11.654;2023-05-08T13:23:20;13.85;;;11.57;;
74269;SDS011;62754;48.252;11.654;2023-05-08T13:25:46;13.63;;;10.82;;
74269;SDS011;62754;48.252;11.654;2023-05-08T13:28:22;15.35;;;10.80;;
74269;SDS011;62754;48.252;11.654;2023-05-08T13:30:50;14.77;;;11.43;;
74269;SDS011;62754;48.252;11.654;2023-05-08T13:33:16;14.00;;;11.90;;
74269;SDS011;62754;48.252;11.654;2023-05-08T13:35:42;15.20;;;11.63;;
74269;SDS011;62754;48.252;11.654;2023-05-08T13:38:10;14.35;;;9.93;;
74269;SDS011;62754;48.252;11.654;2023-05-08T13:40:37;11.70;;;9.98;;
74269;SDS011;62754;48.252;11.654;2023-05-08T13:43:03;13.50;;;10.55;;
74269;SDS011;62754;48.252;11.654;2023-05-08T13:45:36;12.90;;;10.32;;
74269;SDS011;62754;48.252;11.654;2023-05-08T13:48:02;13.38;;;10.48;;
74269;SDS011;62754;48.252;11.654;2023-05-08T13:50:28;14.80;;;11.05;;
74269;SDS011;62754;48.252;11.654;2023-05-08T13:52:56;12.68;;;10.07;;
74269;SDS011;62754;48.252;11.654;2023-05-08T13:55:24;14.30;;;10.65;;
74269;SDS011;62754;48.252;11.654;2023-05-08T13:57:52;13.02;;;10.93;;
74269;SDS011;62754;48.252;11.654;2023-05-08T14:00:18;14.25;;;11.02;;
74269;SDS011;62754;48.252;11.654;2023-05-08T14:02:44;12.75;;;11.02;;
74269;SDS011;62754;48.252;11.654;2023-05-08T14:05:15;15.95;;;11.05;;
74269;SDS011;62754;48.252;11.654;2023-05-08T14:07:40;14.27;;;10.50;;
74269;SDS011;62754;48.252;11.654;2023-05-08T14:10:08;17.40;;;10.38;;
74269;SDS011;62754;48.252;11.654;2023-05-08T14:12:37;14.57;;;10.25;;
74269;SDS011;62754;48.252;11.654;2023-05-08T14:15:03;13.63;;;9.80;;
74269;SDS011;62754;48.252;11.654;2023-05-08T14:17:34;12.30;;;9.90;;
74269;SDS011;62754;48.252;11.654;2023-05-08T14:20:00;12.48;;;9.07;;
74269;SDS011;62754;48.252;11.654;2023-05-08T14:22:27;11.20;;;8.88;;
74269;SDS011;62754;48.252;11.654;2023-05-08T14:24:55;12.52;;;9.35;;
74269;SDS011;62754;48.252;11.654;2023-05-08T14:27:21;12.65;;;9.10;;
74269;SDS011;62754;48.252;11.654;2023-05-08T14:29:47;13.82;;;9.52;;
74269;SDS011;62754;48.252;11.654;2023-05-08T14:32:14;14.52;;;9.38;;
74269;SDS011;62754;48.252;11.654;2023-05-08T14:34:43;12.32;;;9.43;;
74269;SDS011;62754;48.252;11.654;2023-05-08T14:37:11;14.43;;;9.35;;
74269;SDS011;62754;48.252;11.654;2023-05-08T14:39:39;13.23;;;10.20;;
74269;SDS011;62754;48.252;11.654;2023-05-08T14:42:07;13.38;;;9.75;;
74269;SDS011;62754;48.252;11.654;2023-05-08T14:44:33;12.18;;;8.75;;
74269;SDS011;62754;48.252;11.654;2023-05-08T14:47:01;12.50;;;9.45;;
74269;SDS011;62754;48.252;11.654;2023-05-08T14:49:27;12.48;;;9.55;;
74269;SDS011;62754;48.252;11.654;2023-05-08T14:51:52;13.43;;;9.40;;
74269;SDS011;62754;48.252;11.654;2023-05-08T14:54:20;12.45;;;9.20;;
74269;SDS011;62754;48.252;11.654;2023-05-08T14:56:51;12.40;;;9.45;;
74269;SDS011;62754;48.252;11.654;2023-05-08T14:59:19;12.63;;;10.07;;
74269;SDS011;62754;48.252;11.654;2023-05-08T15:01:52;12.50;;;10.02;;
74269;SDS011;62754;48.252;11.654;2023-05-08T15:04:17;12.90;;;9.82;;
74269;SDS011;62754;48.252;11.654;2023-05-08T15:06:43;12.73;;;9.80;;
74269;SDS011;62754;48.252;11.654;2023-05-08T15:09:09;13.40;;;9.40;;
74269;SDS011;62754;48.252;11.654;2023-05-08T15:11:35;12.27;;;9.73;;
74269;SDS011;62754;48.252;11.654;2023-05-08T15:14:02;12.25;;;9.73;;
74269;SDS011;62754;48.252;11.654;2023-05-08T15:16:28;12.35;;;9.63;;
74269;SDS011;62754;48.252;11.654;2023-05-08T15:18:54;14.20;;;10.45;;
74269;SDS011;62754;48.252;11.654;2023-05-08T15:21:20;14.27;;;11.40;;
74269;SDS011;62754;48.252;11.654;2023-05-08T15:23:50;13.73;;;10.05;;
74269;SDS011;62754;48.252;11.654;2023-05-08T15:26:20;14.20;;;10.05;;
74269;SDS011;62754;48.252;11.654;2023-05-08T15:28:46;13.63;;;9.85;;
74269;SDS011;62754;48.252;11.654;2023-05-08T15:31:12;13.45;;;10.43;;
74269;SDS011;62754;48.252;11.654;2023-05-08T15:33:41;14.75;;;9.98;;
74269;SDS011;62754;48.252;11.654;2023-05-08T15:36:11;12.43;;;9.45;;
74269;SDS011;62754;48.252;11.654;2023-05-08T15:38:40;13.35;;;10.13;;
74269;SDS011;62754;48.252;11.654;2023-05-08T15:41:11;13.07;;;10.10;;
74269;SDS011;62754;48.252;11.654;2023-05-08T15:43:39;12.50;;;9.93;;
74269;SDS011;62754;48.252;11.654;2023-05-08T15:46:05;13.82;;;9.38;;
74269;SDS011;62754;48.252;11.654;2023-05-08T15:48:36;14.15;;;10.75;;
74269;SDS011;62754;48.252;11.654;2023-05-08T15:51:01;14.23;;;10.52;;
74269;SDS011;62754;48.252;11.654;2023-05-08T15:53:27;12.00;;;9.18;;
74269;SDS011;62754;48.252;11.654;2023-05-08T15:55:56;14.02;;;10.13;;
74269;SDS011;62754;48.252;11.654;2023-05-08T15:58:22;14.73;;;11.23;;
74269;SDS011;62754;48.252;11.654;2023-05-08T16:00:48;15.07;;;10.82;;
74269;SDS011;62754;48.252;11.654;2023-05-08T16:03:13;14.95;;;11.23;;
74269;SDS011;62754;48.252;11.654;2023-05-08T16:05:44;14.60;;;11.25;;
74269;SDS011;62754;48.252;11.654;2023-05-08T16:08:12;15.68;;;11.77;;